sensor_id;sensor_type;location;lat;lon;timestamp;pressure;altitude;pressure_sealevel;temperature;humidity
45369;BME280;51342;55.250;37.668;2022-11-21T00:04:05;100150.25;;;-3.45;77.80
45369;BME280;51342;55.250;37.668;2022-11-21T00:06:37;100143.34;;;-3.46;77.72
45369;BME280;51342;55.250;37.668;2022-11-21T00:09:08;100146.09;;;-3.44;77.80
45369;BME280;51342;55.250;37.668;2022-11-21T00:11:40;100130.91;;;-3.44;77.64
45369;BME280;51342;55.250;37.668;2022-11-21T00:14:11;100114.47;;;-3.48;78.00
45369;BME280;51342;55.250;37.668;2022-11-21T00:16:44;100113.38;;;-3.43;77.79
45369;BME280;51342;55.250;37.668;2022-11-21T00:19:15;100103.09;;;-3.44;77.86
45369;BME280;51342;55.250;37.668;2022-11-21T00:21:47;100112.81;;;-3.40;77.92
45369;BME280;51342;55.250;37.668;2022-11-21T00:24:18;100111.00;;;-3.41;77.77
45369;BME280;51342;55.250;37.668;2022-11-21T00:26:49;100110.13;;;-3.42;77.86
45369;BME280;51342;55.250;37.668;2022-11-21T00:29:21;100108.69;;;-3.40;77.89
45369;BME280;51342;55.250;37.668;2022-11-21T00:31:52;100110.50;;;-3.39;77.99
45369;BME280;51342;55.250;37.668;2022-11-21T00:34:24;100099.81;;;-3.43;77.84
45369;BME280;51342;55.250;37.668;2022-11-21T00:36:55;100098.03;;;-3.44;77.77
45369;BME280;51342;55.250;37.668;2022-11-21T00:39:26;100100.56;;;-3.44;77.79
45369;BME280;51342;55.250;37.668;2022-11-21T00:41:58;100106.13;;;-3.47;78.06
45369;BME280;51342;55.250;37.668;2022-11-21T00:44:29;100113.00;;;-3.46;77.92
45369;BME280;51342;55.250;37.668;2022-11-21T00:47:01;100117.38;;;-3.45;77.80
45369;BME280;51342;55.250;37.668;2022-11-21T00:49:32;100109.78;;;-3.45;77.81
45369;BME280;51342;55.250;37.668;2022-11-21T00:52:04;100117.53;;;-3.43;77.88
45369;BME280;51342;55.250;37.668;2022-11-21T00:54:35;100126.03;;;-3.43;77.80
45369;BME280;51342;55.250;37.668;2022-11-21T00:57:06;100120.78;;;-3.44;77.75
45369;BME280;51342;55.250;37.668;2022-11-21T00:59:38;100122.59;;;-3.43;77.89
45369;BME280;51342;55.250;37.668;2022-11-21T01:02:09;100115.91;;;-3.43;77.82
45369;BME280;51342;55.250;37.668;2022-11-21T01:04:44;100109.56;;;-3.47;77.64
45369;BME280;51342;55.250;37.668;2022-11-21T01:07:15;100110.84;;;-3.43;77.98
45369;BME280;51342;55.250;37.668;2022-11-21T01:09:46;100106.50;;;-3.44;77.83
45369;BME280;51342;55.250;37.668;2022-11-21T01:12:18;100101.06;;;-3.47;77.65
45369;BME280;51342;55.250;37.668;2022-11-21T01:14:49;100092.41;;;-3.49;77.74
45369;BME280;51342;55.250;37.668;2022-11-21T01:17:21;100079.22;;;-3.54;77.54
45369;BME280;51342;55.250;37.668;2022-11-21T01:19:52;100062.44;;;-3.53;77.80
45369;BME280;51342;55.250;37.668;2022-11-21T01:22:23;100064.78;;;-3.55;77.66
45369;BME280;51342;55.250;37.668;2022-11-21T01:24:55;100066.41;;;-3.55;77.66
45369;BME280;51342;55.250;37.668;2022-11-21T01:27:26;100064.41;;;-3.58;77.58
45369;BME280;51342;55.250;37.668;2022-11-21T01:29:57;100062.09;;;-3.56;77.47
45369;BME280;51342;55.250;37.668;2022-11-21T01:32:29;100051.06;;;-3.57;77.79
45369;BME280;51342;55.250;37.668;2022-11-21T01:35:00;100046.38;;;-3.61;77.72
45369;BME280;51342;55.250;37.668;2022-11-21T01:37:32;100042.75;;;-3.63;77.67
45369;BME280;51342;55.250;37.668;2022-11-21T01:40:03;100049.63;;;-3.62;77.71
45369;BME280;51342;55.250;37.668;2022-11-21T01:43:11;100046.53;;;-3.66;77.56
45369;BME280;51342;55.250;37.668;2022-11-21T01:45:54;100051.94;;;-3.63;77.56
45369;BME280;51342;55.250;37.668;2022-11-21T01:48:36;100056.31;;;-3.62;77.56
45369;BME280;51342;55.250;37.668;2022-11-21T01:54:02;100054.84;;;-3.60;77.65
45369;BME280;51342;55.250;37.668;2022-11-21T01:56:40;100046.19;;;-3.62;77.63
45369;BME280;51342;55.250;37.668;2022-11-21T01:59:21;100054.13;;;-3.66;77.57
45369;BME280;51342;55.250;37.668;2022-11-21T02:01:56;100059.38;;;-3.65;77.79
45369;BME280;51342;55.250;37.668;2022-11-21T02:04:30;100044.03;;;-3.66;77.41
45369;BME280;51342;55.250;37.668;2022-11-21T02:07:05;100038.59;;;-3.62;77.51
45369;BME280;51342;55.250;37.668;2022-11-21T02:09:39;100030.13;;;-3.63;77.38
45369;BME280;51342;55.250;37.668;2022-11-21T02:12:28;100025.03;;;-3.70;77.66
45369;BME280;51342;55.250;37.668;2022-11-21T02:15:01;100027.97;;;-3.74;77.67
45369;BME280;51342;55.250;37.668;2022-11-21T02:17:32;100032.81;;;-3.76;77.67
45369;BME280;51342;55.250;37.668;2022-11-21T02:20:09;100039.88;;;-3.73;77.64
45369;BME280;51342;55.250;37.668;2022-11-21T02:22:56;100034.44;;;-3.76;77.69
45369;BME280;51342;55.250;37.668;2022-11-21T02:25:33;100020.19;;;-3.83;77.62
45369;BME280;51342;55.250;37.668;2022-11-21T02:28:07;100017.28;;;-3.86;77.51
45369;BME280;51342;55.250;37.668;2022-11-21T02:30:41;100030.66;;;-3.87;77.73
45369;BME280;51342;55.250;37.668;2022-11-21T02:33:14;100032.81;;;-3.83;77.76
45369;BME280;51342;55.250;37.668;2022-11-21T02:35:55;100027.38;;;-3.86;77.57
45369;BME280;51342;55.250;37.668;2022-11-21T02:38:36;100018.75;;;-3.88;77.67
45369;BME280;51342;55.250;37.668;2022-11-21T02:41:22;100027.03;;;-3.89;77.65
45369;BME280;51342;55.250;37.668;2022-11-21T02:44:02;100021.63;;;-3.92;77.75
45369;BME280;51342;55.250;37.668;2022-11-21T02:46:35;100016.56;;;-3.92;77.86
45369;BME280;51342;55.250;37.668;2022-11-21T02:49:21;100023.06;;;-3.94;77.73
45369;BME280;51342;55.250;37.668;2022-11-21T02:51:54;100017.13;;;-3.94;77.84
45369;BME280;51342;55.250;37.668;2022-11-21T02:54:26;100008.97;;;-3.99;77.95
45369;BME280;51342;55.250;37.668;2022-11-21T02:56:57;100015.50;;;-4.01;77.81
45369;BME280;51342;55.250;37.668;2022-11-21T02:59:28;100010.06;;;-4.04;77.78
45369;BME280;51342;55.250;37.668;2022-11-21T03:02:00;100014.78;;;-4.07;77.87
45369;BME280;51342;55.250;37.668;2022-11-21T03:04:32;100013.66;;;-4.09;77.71
45369;BME280;51342;55.250;37.668;2022-11-21T03:07:03;100013.88;;;-4.08;78.06
45369;BME280;51342;55.250;37.668;2022-11-21T03:09:35;100001.25;;;-4.08;78.01
45369;BME280;51342;55.250;37.668;2022-11-21T03:12:07;99989.84;;;-4.11;77.80
45369;BME280;51342;55.250;37.668;2022-11-21T03:14:39;99988.22;;;-4.11;78.26
45369;BME280;51342;55.250;37.668;2022-11-21T03:17:11;99995.63;;;-4.12;78.05
45369;BME280;51342;55.250;37.668;2022-11-21T03:19:42;99998.00;;;-4.14;78.09
45369;BME280;51342;55.250;37.668;2022-11-21T03:22:14;99998.00;;;-4.14;78.30
45369;BME280;51342;55.250;37.668;2022-11-21T03:24:46;99995.09;;;-4.17;78.08
45369;BME280;51342;55.250;37.668;2022-11-21T03:27:17;99991.28;;;-4.20;78.25
45369;BME280;51342;55.250;37.668;2022-11-21T03:29:48;99989.66;;;-4.20;78.31
45369;BME280;51342;55.250;37.668;2022-11-21T03:32:20;99993.13;;;-4.19;78.34
45369;BME280;51342;55.250;37.668;2022-11-21T03:34:51;100003.41;;;-4.18;78.55
45369;BME280;51342;55.250;37.668;2022-11-21T03:37:23;100013.66;;;-4.16;78.64
45369;BME280;51342;55.250;37.668;2022-11-21T03:39:54;100006.66;;;-4.12;78.33
45369;BME280;51342;55.250;37.668;2022-11-21T03:42:26;100003.38;;;-4.11;78.52
45369;BME280;51342;55.250;37.668;2022-11-21T03:44:57;100006.66;;;-4.12;78.42
45369;BME280;51342;55.250;37.668;2022-11-21T03:47:29;100002.13;;;-4.14;78.55
45369;BME280;51342;55.250;37.668;2022-11-21T03:50:00;100006.09;;;-4.16;78.41
45369;BME280;51342;55.250;37.668;2022-11-21T03:52:32;99998.84;;;-4.20;78.51
45369;BME280;51342;55.250;37.668;2022-11-21T03:55:03;99993.47;;;-4.23;78.62
45369;BME280;51342;55.250;37.668;2022-11-21T03:57:35;99991.47;;;-4.26;78.29
45369;BME280;51342;55.250;37.668;2022-11-21T04:00:07;99993.09;;;-4.27;78.63
45369;BME280;51342;55.250;37.668;2022-11-21T04:02:38;99986.78;;;-4.30;78.53
45369;BME280;51342;55.250;37.668;2022-11-21T04:05:10;99988.75;;;-4.28;78.71
45369;BME280;51342;55.250;37.668;2022-11-21T04:07:41;99985.16;;;-4.30;78.53
45369;BME280;51342;55.250;37.668;2022-11-21T04:10:13;99992.00;;;-4.29;78.67
45369;BME280;51342;55.250;37.668;2022-11-21T04:12:44;99985.88;;;-4.31;78.44
45369;BME280;51342;55.250;37.668;2022-11-21T04:15:15;99984.06;;;-4.32;78.70
45369;BME280;51342;55.250;37.668;2022-11-21T04:17:47;99980.28;;;-4.35;78.61
45369;BME280;51342;55.250;37.668;2022-11-21T04:20:18;99993.25;;;-4.32;78.46
45369;BME280;51342;55.250;37.668;2022-11-21T04:22:50;99992.19;;;-4.34;78.59
45369;BME280;51342;55.250;37.668;2022-11-21T04:25:21;99986.75;;;-4.37;78.59
45369;BME280;51342;55.250;37.668;2022-11-21T04:27:57;99992.19;;;-4.41;78.66
45369;BME280;51342;55.250;37.668;2022-11-21T04:30:29;99990.91;;;-4.45;78.92
45369;BME280;51342;55.250;37.668;2022-11-21T04:33:00;99989.44;;;-4.43;78.65
45369;BME280;51342;55.250;37.668;2022-11-21T04:35:31;99998.84;;;-4.42;78.87
45369;BME280;51342;55.250;37.668;2022-11-21T04:38:03;100003.91;;;-4.42;78.81
45369;BME280;51342;55.250;37.668;2022-11-21T04:40:34;99995.59;;;-4.41;78.56
45369;BME280;51342;55.250;37.668;2022-11-21T04:43:06;99973.06;;;-4.39;78.32
45369;BME280;51342;55.250;37.668;2022-11-21T04:45:37;99974.50;;;-4.41;78.39
45369;BME280;51342;55.250;37.668;2022-11-21T04:48:09;99970.19;;;-4.42;78.69
45369;BME280;51342;55.250;37.668;2022-11-21T04:50:41;99974.69;;;-4.40;78.49
45369;BME280;51342;55.250;37.668;2022-11-21T04:53:12;99964.41;;;-4.41;78.51
45369;BME280;51342;55.250;37.668;2022-11-21T04:55:44;99962.41;;;-4.44;78.68
45369;BME280;51342;55.250;37.668;2022-11-21T04:58:15;99960.06;;;-4.42;78.57
45369;BME280;51342;55.250;37.668;2022-11-21T05:00:46;99972.50;;;-4.44;78.30
45369;BME280;51342;55.250;37.668;2022-11-21T05:03:18;99960.25;;;-4.48;78.33
45369;BME280;51342;55.250;37.668;2022-11-21T05:05:49;99969.97;;;-4.44;78.47
45369;BME280;51342;55.250;37.668;2022-11-21T05:08:20;99969.81;;;-4.45;78.32
45369;BME280;51342;55.250;37.668;2022-11-21T05:10:52;99964.56;;;-4.47;78.30
45369;BME280;51342;55.250;37.668;2022-11-21T05:13:44;99956.63;;;-4.50;78.44
45369;BME280;51342;55.250;37.668;2022-11-21T05:16:15;99964.38;;;-4.48;78.24
45369;BME280;51342;55.250;37.668;2022-11-21T05:18:54;99968.16;;;-4.52;78.36
45369;BME280;51342;55.250;37.668;2022-11-21T05:21:26;99969.41;;;-4.56;78.27
45369;BME280;51342;55.250;37.668;2022-11-21T05:23:57;99980.06;;;-4.51;78.38
45369;BME280;51342;55.250;37.668;2022-11-21T05:26:28;99971.59;;;-4.51;78.24
45369;BME280;51342;55.250;37.668;2022-11-21T05:29:00;99980.06;;;-4.51;78.28
45369;BME280;51342;55.250;37.668;2022-11-21T05:31:31;99964.91;;;-4.58;78.09
45369;BME280;51342;55.250;37.668;2022-11-21T05:34:03;99961.28;;;-4.60;78.10
45369;BME280;51342;55.250;37.668;2022-11-21T05:36:34;99967.22;;;-4.60;78.30
45369;BME280;51342;55.250;37.668;2022-11-21T05:39:05;99961.28;;;-4.60;78.30
45369;BME280;51342;55.250;37.668;2022-11-21T05:41:39;99964.19;;;-4.64;78.37
45369;BME280;51342;55.250;37.668;2022-11-21T05:44:11;99974.63;;;-4.61;78.22
45369;BME280;51342;55.250;37.668;2022-11-21T05:46:43;99969.94;;;-4.65;78.19
45369;BME280;51342;55.250;37.668;2022-11-21T05:49:14;99969.22;;;-4.64;77.94
45369;BME280;51342;55.250;37.668;2022-11-21T05:51:45;99955.31;;;-4.68;78.19
45369;BME280;51342;55.250;37.668;2022-11-21T05:54:17;99949.91;;;-4.71;78.25
45369;BME280;51342;55.250;37.668;2022-11-21T05:56:48;99952.06;;;-4.74;78.17
45369;BME280;51342;55.250;37.668;2022-11-21T05:59:20;99966.13;;;-4.76;78.12
45369;BME280;51342;55.250;37.668;2022-11-21T06:01:51;99956.75;;;-4.77;78.20
45369;BME280;51342;55.250;37.668;2022-11-21T06:04:40;99960.34;;;-4.82;78.11
45369;BME280;51342;55.250;37.668;2022-11-21T06:07:12;99958.38;;;-4.77;78.30
45369;BME280;51342;55.250;37.668;2022-11-21T06:09:43;99964.34;;;-4.70;78.12
45369;BME280;51342;55.250;37.668;2022-11-21T06:12:15;99951.34;;;-4.66;77.87
45369;BME280;51342;55.250;37.668;2022-11-21T06:14:46;99955.50;;;-4.66;78.07
45369;BME280;51342;55.250;37.668;2022-11-21T06:17:18;99945.22;;;-4.68;77.82
45369;BME280;51342;55.250;37.668;2022-11-21T06:19:49;99946.84;;;-4.68;78.06
45369;BME280;51342;55.250;37.668;2022-11-21T06:22:22;99932.06;;;-4.72;77.67
45369;BME280;51342;55.250;37.668;2022-11-21T06:24:53;99920.50;;;-4.77;77.91
45369;BME280;51342;55.250;37.668;2022-11-21T06:27:25;99929.88;;;-4.76;77.85
45369;BME280;51342;55.250;37.668;2022-11-21T06:29:56;99939.63;;;-4.72;78.00
45369;BME280;51342;55.250;37.668;2022-11-21T06:32:27;99939.28;;;-4.68;78.03
45369;BME280;51342;55.250;37.668;2022-11-21T06:34:59;99932.06;;;-4.65;77.74
45369;BME280;51342;55.250;37.668;2022-11-21T06:37:30;99922.69;;;-4.66;77.85
45369;BME280;51342;55.250;37.668;2022-11-21T06:40:02;99917.09;;;-4.71;77.66
45369;BME280;51342;55.250;37.668;2022-11-21T06:42:33;99928.28;;;-4.69;77.91
45369;BME280;51342;55.250;37.668;2022-11-21T06:45:05;99931.88;;;-4.67;77.71
45369;BME280;51342;55.250;37.668;2022-11-21T06:47:36;99935.88;;;-4.69;77.72
45369;BME280;51342;55.250;37.668;2022-11-21T06:50:08;99932.63;;;-4.68;77.72
45369;BME280;51342;55.250;37.668;2022-11-21T06:52:40;99928.47;;;-4.67;77.61
45369;BME280;51342;55.250;37.668;2022-11-21T06:55:12;99927.56;;;-4.61;77.69
45369;BME280;51342;55.250;37.668;2022-11-21T06:57:44;99939.13;;;-4.56;77.55
45369;BME280;51342;55.250;37.668;2022-11-21T07:00:16;99930.47;;;-4.50;77.43
45369;BME280;51342;55.250;37.668;2022-11-21T07:02:47;99926.50;;;-4.48;77.52
45369;BME280;51342;55.250;37.668;2022-11-21T07:05:19;99924.19;;;-4.47;77.39
45369;BME280;51342;55.250;37.668;2022-11-21T07:07:50;99912.63;;;-4.45;77.45
45369;BME280;51342;55.250;37.668;2022-11-21T07:10:21;99923.63;;;-4.37;77.36
45369;BME280;51342;55.250;37.668;2022-11-21T07:13:00;99934.44;;;-4.38;77.04
45369;BME280;51342;55.250;37.668;2022-11-21T07:15:52;99937.88;;;-4.45;76.95
45369;BME280;51342;55.250;37.668;2022-11-21T07:18:25;99937.88;;;-4.45;77.06
45369;BME280;51342;55.250;37.668;2022-11-21T07:20:58;99935.72;;;-4.42;77.04
45369;BME280;51342;55.250;37.668;2022-11-21T07:23:31;99937.88;;;-4.45;77.15
45369;BME280;51342;55.250;37.668;2022-11-21T07:26:04;99948.53;;;-4.47;77.02
45369;BME280;51342;55.250;37.668;2022-11-21T07:28:36;99943.47;;;-4.47;77.03
45369;BME280;51342;55.250;37.668;2022-11-21T07:31:09;99941.28;;;-4.44;77.02
45369;BME280;51342;55.250;37.668;2022-11-21T07:33:41;99946.50;;;-4.43;76.84
45369;BME280;51342;55.250;37.668;2022-11-21T07:36:19;99957.91;;;-4.39;76.98
45369;BME280;51342;55.250;37.668;2022-11-21T07:38:51;99956.28;;;-4.32;76.91
45369;BME280;51342;55.250;37.668;2022-11-21T07:41:22;99962.59;;;-4.28;76.87
45369;BME280;51342;55.250;37.668;2022-11-21T07:43:53;99953.22;;;-4.29;76.49
45369;BME280;51342;55.250;37.668;2022-11-21T07:46:25;99955.56;;;-4.31;76.55
45369;BME280;51342;55.250;37.668;2022-11-21T07:48:56;99956.81;;;-4.27;76.56
45369;BME280;51342;55.250;37.668;2022-11-21T07:51:28;99965.69;;;-4.23;76.54
45369;BME280;51342;55.250;37.668;2022-11-21T07:53:59;99960.25;;;-4.27;76.48
45369;BME280;51342;55.250;37.668;2022-11-21T07:56:30;99962.25;;;-4.24;76.40
45369;BME280;51342;55.250;37.668;2022-11-21T07:59:02;99966.75;;;-4.21;76.38
45369;BME280;51342;55.250;37.668;2022-11-21T08:01:33;99969.09;;;-4.16;76.30
45369;BME280;51342;55.250;37.668;2022-11-21T08:04:05;99961.00;;;-4.13;76.42
45369;BME280;51342;55.250;37.668;2022-11-21T08:06:36;99953.75;;;-4.10;76.22
45369;BME280;51342;55.250;37.668;2022-11-21T08:09:07;99954.88;;;-4.08;76.14
45369;BME280;51342;55.250;37.668;2022-11-21T08:11:39;99960.44;;;-4.11;76.25
45369;BME280;51342;55.250;37.668;2022-11-21T08:14:10;99953.75;;;-4.10;76.07
45369;BME280;51342;55.250;37.668;2022-11-21T08:16:41;99948.53;;;-4.12;75.94
45369;BME280;51342;55.250;37.668;2022-11-21T08:19:13;99957.91;;;-4.11;76.01
45369;BME280;51342;55.250;37.668;2022-11-21T08:21:44;99948.69;;;-4.10;75.83
45369;BME280;51342;55.250;37.668;2022-11-21T08:24:16;99951.94;;;-4.04;75.91
45369;BME280;51342;55.250;37.668;2022-11-21T08:26:47;99951.59;;;-4.07;75.62
45369;BME280;51342;55.250;37.668;2022-11-21T08:29:19;99938.59;;;-4.10;75.65
45369;BME280;51342;55.250;37.668;2022-11-21T08:31:50;99943.66;;;-4.10;75.57
45369;BME280;51342;55.250;37.668;2022-11-21T08:34:22;99939.31;;;-4.11;75.59
45369;BME280;51342;55.250;37.668;2022-11-21T08:36:53;99932.81;;;-4.09;75.31
45369;BME280;51342;55.250;37.668;2022-11-21T08:39:24;99932.81;;;-4.09;75.48
45369;BME280;51342;55.250;37.668;2022-11-21T08:41:56;99940.75;;;-3.99;75.45
45369;BME280;51342;55.250;37.668;2022-11-21T08:44:34;99938.22;;;-3.99;75.00
45369;BME280;51342;55.250;37.668;2022-11-21T08:47:05;99929.22;;;-3.97;75.14
45369;BME280;51342;55.250;37.668;2022-11-21T08:49:37;99930.28;;;-3.95;75.07
45369;BME280;51342;55.250;37.668;2022-11-21T08:52:08;99931.19;;;-3.94;74.94
45369;BME280;51342;55.250;37.668;2022-11-21T08:54:39;99933.00;;;-3.93;75.05
45369;BME280;51342;55.250;37.668;2022-11-21T08:57:11;99916.41;;;-3.91;75.11
45369;BME280;51342;55.250;37.668;2022-11-21T08:59:42;99925.56;;;-3.92;74.86
45369;BME280;51342;55.250;37.668;2022-11-21T09:02:14;99918.38;;;-3.96;75.11
45369;BME280;51342;55.250;37.668;2022-11-21T09:04:45;99919.28;;;-3.88;74.88
45369;BME280;51342;55.250;37.668;2022-11-21T09:07:16;99922.69;;;-3.88;74.81
45369;BME280;51342;55.250;37.668;2022-11-21T09:09:48;99911.16;;;-3.93;74.54
45369;BME280;51342;55.250;37.668;2022-11-21T09:12:19;99918.19;;;-3.90;74.85
45369;BME280;51342;55.250;37.668;2022-11-21T09:14:51;99930.44;;;-3.86;74.70
45369;BME280;51342;55.250;37.668;2022-11-21T09:17:40;99916.00;;;-3.87;74.56
45369;BME280;51342;55.250;37.668;2022-11-21T09:20:32;99917.09;;;-3.85;74.71
45369;BME280;51342;55.250;37.668;2022-11-21T10:49:47;99824.50;;;-3.10;71.10
45369;BME280;51342;55.250;37.668;2022-11-21T10:52:22;99831.63;;;-3.29;71.86
45369;BME280;51342;55.250;37.668;2022-11-21T10:55:11;99832.56;;;-3.36;72.62
45369;BME280;51342;55.250;37.668;2022-11-21T10:57:51;99832.56;;;-3.36;73.13
45369;BME280;51342;55.250;37.668;2022-11-21T11:00:26;99837.41;;;-3.30;73.01
45369;BME280;51342;55.250;37.668;2022-11-21T11:03:01;99841.94;;;-3.28;73.24
45369;BME280;51342;55.250;37.668;2022-11-21T11:05:37;99837.41;;;-3.30;73.05
45369;BME280;51342;55.250;37.668;2022-11-21T11:08:10;99829.66;;;-3.32;73.20
45369;BME280;51342;55.250;37.668;2022-11-21T11:10:44;99827.88;;;-3.33;73.23
45369;BME280;51342;55.250;37.668;2022-11-21T11:13:17;99829.31;;;-3.35;72.93
45369;BME280;51342;55.250;37.668;2022-11-21T11:18:47;99817.47;;;-3.50;73.60
45369;BME280;51342;55.250;37.668;2022-11-21T11:21:22;99821.97;;;-3.48;73.17
45369;BME280;51342;55.250;37.668;2022-11-21T11:29:19;99813.53;;;-3.55;73.18
45369;BME280;51342;55.250;37.668;2022-11-21T11:32:17;99812.47;;;-3.57;73.18
45369;BME280;51342;55.250;37.668;2022-11-21T11:34:58;99799.63;;;-3.59;73.08
45369;BME280;51342;55.250;37.668;2022-11-21T11:37:35;99804.47;;;-3.53;72.92
45369;BME280;51342;55.250;37.668;2022-11-21T11:40:21;99810.63;;;-3.58;72.86
45369;BME280;51342;55.250;37.668;2022-11-21T11:55:20;99817.19;;;-3.67;73.02
45369;BME280;51342;55.250;37.668;2022-11-21T11:57:55;99807.63;;;-3.70;72.95
45369;BME280;51342;55.250;37.668;2022-11-21T12:01:01;99812.88;;;-3.76;73.09
45369;BME280;51342;55.250;37.668;2022-11-21T12:03:42;99817.94;;;-3.68;73.12
45369;BME280;51342;55.250;37.668;2022-11-21T12:06:37;99817.72;;;-3.70;73.02
45369;BME280;51342;55.250;37.668;2022-11-21T12:12:09;99812.19;;;-3.82;73.25
45369;BME280;51342;55.250;37.668;2022-11-21T12:15:03;99819.03;;;-3.81;72.92
45369;BME280;51342;55.250;37.668;2022-11-21T12:23:54;99809.72;;;-4.03;72.87
45369;BME280;51342;55.250;37.668;2022-11-21T12:44:29;99804.75;;;-4.24;73.10
45369;BME280;51342;55.250;37.668;2022-11-21T12:50:20;99813.22;;;-4.24;73.09
45369;BME280;51342;55.250;37.668;2022-11-21T12:53:25;99801.66;;;-4.22;73.19
45369;BME280;51342;55.250;37.668;2022-11-21T12:56:27;99790.28;;;-4.26;73.28
45369;BME280;51342;55.250;37.668;2022-11-21T12:59:02;99801.47;;;-4.16;73.35
45369;BME280;51342;55.250;37.668;2022-11-21T13:01:46;99797.31;;;-4.16;73.33
45369;BME280;51342;55.250;37.668;2022-11-21T13:04:48;99798.22;;;-4.22;73.16
45369;BME280;51342;55.250;37.668;2022-11-21T13:07:20;99801.81;;;-4.20;73.46
45369;BME280;51342;55.250;37.668;2022-11-21T13:09:54;99798.41;;;-4.21;73.46
45369;BME280;51342;55.250;37.668;2022-11-21T13:18:22;99796.09;;;-4.34;73.58
45369;BME280;51342;55.250;37.668;2022-11-21T13:20:55;99810.88;;;-4.30;73.70
45369;BME280;51342;55.250;37.668;2022-11-21T13:23:36;99810.50;;;-4.33;73.58
45369;BME280;51342;55.250;37.668;2022-11-21T13:31:38;99807.66;;;-4.36;73.67
45369;BME280;51342;55.250;37.668;2022-11-21T13:34:35;99809.81;;;-4.39;73.68
45369;BME280;51342;55.250;37.668;2022-11-21T13:37:07;99798.97;;;-4.38;73.88
45369;BME280;51342;55.250;37.668;2022-11-21T13:39:38;99803.31;;;-4.37;73.92
45369;BME280;51342;55.250;37.668;2022-11-21T13:42:11;99787.81;;;-4.40;73.90
45369;BME280;51342;55.250;37.668;2022-11-21T13:51:25;99788.91;;;-4.52;74.15
45369;BME280;51342;55.250;37.668;2022-11-21T14:00:02;99783.16;;;-4.58;74.10
45369;BME280;51342;55.250;37.668;2022-11-21T14:05:56;99797.03;;;-4.69;74.26
45369;BME280;51342;55.250;37.668;2022-11-21T14:08:32;99798.09;;;-4.67;74.24
45369;BME280;51342;55.250;37.668;2022-11-21T14:11:31;99800.09;;;-4.71;74.33
45369;BME280;51342;55.250;37.668;2022-11-21T14:14:07;99797.22;;;-4.67;74.37
45369;BME280;51342;55.250;37.668;2022-11-21T14:16:47;99797.03;;;-4.69;74.35
45369;BME280;51342;55.250;37.668;2022-11-21T14:19:23;99783.84;;;-4.66;74.32
45369;BME280;51342;55.250;37.668;2022-11-21T14:21:55;99792.16;;;-4.67;74.41
45369;BME280;51342;55.250;37.668;2022-11-21T14:24:27;99795.56;;;-4.67;74.43
45369;BME280;51342;55.250;37.668;2022-11-21T14:27:03;99783.69;;;-4.68;74.39
45369;BME280;51342;55.250;37.668;2022-11-21T14:29:39;99781.72;;;-4.70;74.38
45369;BME280;51342;55.250;37.668;2022-11-21T14:32:14;99781.72;;;-4.70;74.48
45369;BME280;51342;55.250;37.668;2022-11-21T14:34:45;99786.56;;;-4.72;74.55
45369;BME280;51342;55.250;37.668;2022-11-21T14:37:17;99778.81;;;-4.73;74.63
45369;BME280;51342;55.250;37.668;2022-11-21T14:39:49;99784.03;;;-4.72;74.65
45369;BME280;51342;55.250;37.668;2022-11-21T14:42:20;99776.31;;;-4.73;74.61
45369;BME280;51342;55.250;37.668;2022-11-21T14:45:06;99781.91;;;-4.76;74.54
45369;BME280;51342;55.250;37.668;2022-11-21T14:47:53;99783.50;;;-4.76;74.59
45369;BME280;51342;55.250;37.668;2022-11-21T14:50:29;99783.50;;;-4.76;74.70
45369;BME280;51342;55.250;37.668;2022-11-21T14:53:03;99781.34;;;-4.73;74.77
45369;BME280;51342;55.250;37.668;2022-11-21T14:55:34;99775.22;;;-4.75;74.67
45369;BME280;51342;55.250;37.668;2022-11-21T14:58:06;99771.06;;;-4.75;74.74
45369;BME280;51342;55.250;37.668;2022-11-21T15:00:40;99766.75;;;-4.76;74.96
45369;BME280;51342;55.250;37.668;2022-11-21T15:03:22;99760.06;;;-4.83;74.72
45369;BME280;51342;55.250;37.668;2022-11-21T15:06:02;99764.59;;;-4.80;74.97
45369;BME280;51342;55.250;37.668;2022-11-21T15:08:35;99761.72;;;-4.76;74.63
45369;BME280;51342;55.250;37.668;2022-11-21T15:11:07;99757.34;;;-4.77;74.79
45369;BME280;51342;55.250;37.668;2022-11-21T15:13:39;99753.22;;;-4.76;75.00
45369;BME280;51342;55.250;37.668;2022-11-21T15:16:11;99757.19;;;-4.71;75.05
45369;BME280;51342;55.250;37.668;2022-11-21T15:18:43;99762.06;;;-4.73;74.95
45369;BME280;51342;55.250;37.668;2022-11-21T15:21:15;99754.66;;;-4.78;75.01
45369;BME280;51342;55.250;37.668;2022-11-21T15:23:46;99757.91;;;-4.80;74.90
45369;BME280;51342;55.250;37.668;2022-11-21T15:26:29;99757.19;;;-4.78;75.07
45369;BME280;51342;55.250;37.668;2022-11-21T15:29:01;99743.84;;;-4.77;75.13
45369;BME280;51342;55.250;37.668;2022-11-21T15:31:35;99750.00;;;-4.75;75.07
45369;BME280;51342;55.250;37.668;2022-11-21T15:34:08;99755.72;;;-4.76;75.04
45369;BME280;51342;55.250;37.668;2022-11-21T15:36:39;99755.22;;;-4.74;75.16
45369;BME280;51342;55.250;37.668;2022-11-21T15:39:18;99760.97;;;-4.75;75.14
45369;BME280;51342;55.250;37.668;2022-11-21T15:41:51;99759.72;;;-4.78;75.13
45369;BME280;51342;55.250;37.668;2022-11-21T15:44:23;99762.41;;;-4.84;74.97
45369;BME280;51342;55.250;37.668;2022-11-21T15:46:55;99768.19;;;-4.85;75.46
45369;BME280;51342;55.250;37.668;2022-11-21T15:49:26;99763.88;;;-4.86;75.27
45369;BME280;51342;55.250;37.668;2022-11-21T15:51:57;99763.53;;;-4.82;75.21
45369;BME280;51342;55.250;37.668;2022-11-21T15:54:29;99756.84;;;-4.82;75.40
45369;BME280;51342;55.250;37.668;2022-11-21T15:57:00;99763.31;;;-4.84;75.25
45369;BME280;51342;55.250;37.668;2022-11-21T15:59:32;99756.81;;;-4.89;75.34
45369;BME280;51342;55.250;37.668;2022-11-21T16:02:03;99761.88;;;-4.89;75.04
45369;BME280;51342;55.250;37.668;2022-11-21T16:04:35;99760.06;;;-4.90;75.33
45369;BME280;51342;55.250;37.668;2022-11-21T16:07:06;99767.81;;;-4.88;75.44
45369;BME280;51342;55.250;37.668;2022-11-21T16:09:38;99754.69;;;-4.86;75.50
45369;BME280;51342;55.250;37.668;2022-11-21T16:12:10;99760.78;;;-4.84;75.48
45369;BME280;51342;55.250;37.668;2022-11-21T16:14:42;99764.22;;;-4.83;75.41